Time;durP1;ratioP1;P1;durP2;ratioP2;P2;SDS_P1;SDS_P2;PMS_P1;PMS_P2;Temp;Humidity;BMP_temperature;BMP_pressure;BME280_temperature;BME280_humidity;BME280_pressure;Samples;Min_cycle;Max_cycle;Signal;HPM_P1;HPM_P2
2023/04/14 00:04:40;;;;;;;3.00;1.33;;;;;4.80;100264.00;;;;9903320;29;20234;-80
2023/04/14 00:09:43;;;;;;;5.77;2.03;;;;;4.70;100277.00;;;;9838697;30;20231;-80
2023/04/14 00:14:44;;;;;;;9.90;2.40;;;;;4.70;100276.00;;;;9840113;30;20309;-80
2023/04/14 00:19:47;;;;;;;7.03;2.20;;;;;4.70;100269.00;;;;9862786;29;20199;-80
2023/04/14 00:24:49;;;;;;;7.27;2.10;;;;;4.70;100269.00;;;;9833616;30;20255;-80
2023/04/14 00:29:51;;;;;;;4.20;1.80;;;;;4.60;100273.00;;;;9867908;29;20404;-80
2023/04/14 00:34:55;;;;;;;7.40;2.73;;;;;4.60;100277.00;;;;9854028;29;20223;-82
2023/04/14 00:39:57;;;;;;;8.33;2.43;;;;;4.60;100285.00;;;;9849332;29;20219;-81
2023/04/14 00:44:59;;;;;;;5.77;2.40;;;;;4.60;100274.00;;;;9881404;29;20504;-81
2023/04/14 00:50:02;;;;;;;3.23;2.10;;;;;4.60;100281.00;;;;9879317;29;20195;-81
2023/04/14 00:55:05;;;;;;;4.93;1.90;;;;;4.70;100284.00;;;;9872054;29;20227;-81
2023/04/14 01:00:08;;;;;;;7.07;2.20;;;;;4.60;100288.00;;;;9885276;29;20237;-81
2023/04/14 01:05:10;;;;;;;3.90;2.10;;;;;4.60;100288.00;;;;9874425;29;20206;-80
2023/04/14 01:10:12;;;;;;;5.53;2.00;;;;;4.50;100301.00;;;;9893861;29;20319;-82
2023/04/14 01:15:33;;;;;;;6.40;2.00;;;;;4.40;100298.00;;;;9878816;29;20232;-80
2023/04/14 01:20:41;;;;;;;6.20;2.10;;;;;4.30;100315.00;;;;9870182;29;20712;-81
2023/04/14 01:26:07;;;;;;;5.37;1.97;;;;;4.20;100313.00;;;;9868397;29;20238;-80
2023/04/14 01:31:33;;;;;;;7.93;2.03;;;;;4.20;100315.00;;;;9844213;30;20550;-82
2023/04/14 01:36:56;;;;;;;7.70;2.50;;;;;4.20;100304.00;;;;9883070;29;20265;-81
2023/04/14 01:41:58;;;;;;;14.33;3.60;;;;;4.10;100310.00;;;;9868564;29;20304;-81
2023/04/14 01:47:04;;;;;;;12.83;3.83;;;;;4.10;100302.00;;;;9868586;29;20651;-82
2023/04/14 01:52:12;;;;;;;11.57;4.37;;;;;4.10;100304.00;;;;9868673;29;20200;-81
2023/04/14 01:57:18;;;;;;;10.57;3.67;;;;;3.90;100295.00;;;;9860305;30;20239;-80
2023/04/14 02:02:24;;;;;;;10.10;3.30;;;;;3.70;100292.00;;;;9861425;29;20200;-81
2023/04/14 02:07:29;;;;;;;9.80;3.70;;;;;3.50;100281.00;;;;9886782;29;20219;-80
2023/04/14 02:12:32;;;;;;;12.03;3.70;;;;;3.40;100278.00;;;;9869289;29;20553;-81
2023/04/14 02:17:35;;;;;;;11.07;3.77;;;;;3.40;100294.00;;;;9883274;29;20412;-81
2023/04/14 02:22:37;;;;;;;13.10;4.23;;;;;3.40;100286.00;;;;9867938;29;20299;-81
2023/04/14 02:27:52;;;;;;;9.77;4.07;;;;;3.20;100289.00;;;;9864138;29;20216;-80
2023/04/14 02:33:07;;;;;;;11.47;3.83;;;;;3.10;100287.00;;;;9830057;30;20235;-81
2023/04/14 02:38:35;;;;;;;10.43;3.50;;;;;2.90;100282.00;;;;9838197;29;20203;-81
2023/04/14 02:43:59;;;;;;;12.70;3.87;;;;;2.80;100288.00;;;;9864068;29;20668;-81
2023/04/14 02:49:04;;;;;;;9.73;3.77;;;;;2.80;100287.00;;;;9867637;29;20877;-81
2023/04/14 02:54:07;;;;;;;10.30;3.50;;;;;2.90;100301.00;;;;9872449;29;20257;-80
2023/04/14 02:59:15;;;;;;;7.47;3.13;;;;;3.10;100295.00;;;;9874735;29;20253;-81
2023/04/14 03:04:35;;;;;;;8.83;2.90;;;;;3.30;100301.00;;;;9881769;29;20687;-80
2023/04/14 03:09:41;;;;;;;5.10;2.90;;;;;3.30;100308.00;;;;9863932;29;20270;-81
2023/04/14 03:14:44;;;;;;;9.60;3.37;;;;;3.40;100305.00;;;;9830709;30;20236;-81
2023/04/14 03:19:48;;;;;;;8.47;2.63;;;;;3.40;100303.00;;;;9844605;30;20294;-81
2023/04/14 03:24:52;;;;;;;7.07;3.07;;;;;3.40;100304.00;;;;9841928;29;20239;-81
2023/04/14 03:29:57;;;;;;;5.90;3.03;;;;;3.30;100307.00;;;;9844456;30;20212;-80
2023/04/14 03:35:00;;;;;;;13.17;3.70;;;;;3.20;100301.00;;;;9870593;29;20738;-80
2023/04/14 03:40:06;;;;;;;9.70;3.77;;;;;3.10;100293.00;;;;9851302;29;20219;-81
2023/04/14 03:45:10;;;;;;;7.13;3.60;;;;;3.20;100291.00;;;;9863621;29;20235;-80
2023/04/14 03:50:16;;;;;;;13.90;4.13;;;;;3.10;100302.00;;;;9874190;29;20215;-81
2023/04/14 03:55:19;;;;;;;12.23;3.67;;;;;3.00;100300.00;;;;9858556;29;20235;-81
2023/04/14 04:00:24;;;;;;;5.97;3.77;;;;;2.90;100297.00;;;;9866573;29;20258;-81
2023/04/14 04:05:27;;;;;;;6.10;3.63;;;;;2.80;100293.00;;;;9871512;29;20298;-81
2023/04/14 04:10:33;;;;;;;9.50;4.07;;;;;2.80;100295.00;;;;9897378;29;20231;-80
2023/04/14 04:15:36;;;;;;;7.93;3.87;;;;;2.60;100306.00;;;;9880576;29;20357;-81
2023/04/14 04:20:40;;;;;;;9.00;3.60;;;;;2.50;100297.00;;;;9867070;29;20313;-80
2023/04/14 04:25:43;;;;;;;12.20;4.27;;;;;2.50;100297.00;;;;9865500;29;20195;-80
2023/04/14 04:30:55;;;;;;;12.57;3.90;;;;;2.50;100308.00;;;;9872952;29;20218;-80
2023/04/14 04:35:59;;;;;;;8.90;3.97;;;;;2.50;100314.00;;;;9832516;30;20243;-80
2023/04/14 04:41:19;;;;;;;10.77;4.30;;;;;2.50;100302.00;;;;9842386;30;20253;-80
2023/04/14 04:46:39;;;;;;;10.73;3.60;;;;;2.40;100302.00;;;;9871779;29;20220;-80
2023/04/14 04:51:42;;;;;;;8.63;3.63;;;;;2.40;100302.00;;;;9866735;29;20210;-80
2023/04/14 04:56:45;;;;;;;10.23;3.77;;;;;2.30;100314.00;;;;9878013;29;20243;-80
2023/04/14 05:01:47;;;;;;;8.13;4.27;;;;;2.30;100318.00;;;;9848675;29;20940;-80
2023/04/14 05:06:49;;;;;;;9.57;3.80;;;;;2.50;100315.00;;;;9857818;29;20264;-80
2023/04/14 05:11:51;;;;;;;9.33;3.80;;;;;2.80;100320.00;;;;9908498;29;20227;-80
2023/04/14 05:16:53;;;;;;;11.47;3.73;;;;;3.40;100330.00;;;;9850451;29;20220;-81
2023/04/14 05:21:55;;;;;;;10.00;4.13;;;;;3.70;100320.00;;;;9869894;29;20224;-80
2023/04/14 05:26:57;;;;;;;6.87;3.87;;;;;3.90;100333.00;;;;9869587;29;20222;-81
2023/04/14 05:32:06;;;;;;;9.80;3.47;;;;;4.20;100323.00;;;;9854968;29;20215;-81
2023/04/14 05:37:08;;;;;;;12.40;4.50;;;;;4.60;100317.00;;;;9869224;29;20236;-80
2023/04/14 05:42:10;;;;;;;15.90;5.03;;;;;5.20;100321.00;;;;9863794;29;20268;-80
2023/04/14 05:47:12;;;;;;;13.33;4.00;;;;;5.90;100325.00;;;;9835243;30;20358;-81
2023/04/14 05:52:14;;;;;;;10.50;3.77;;;;;6.40;100335.00;;;;9864688;29;20200;-81
2023/04/14 05:57:17;;;;;;;5.47;3.10;;;;;6.70;100337.00;;;;9856639;29;20247;-81
2023/04/14 06:02:19;;;;;;;9.73;2.90;;;;;6.70;100338.00;;;;9820324;30;20261;-81
2023/04/14 06:07:21;;;;;;;8.13;3.40;;;;;6.80;100326.00;;;;9897878;29;20235;-81
2023/04/14 06:12:23;;;;;;;9.03;3.10;;;;;6.80;100331.00;;;;9853276;29;20203;-82
2023/04/14 06:17:27;;;;;;;9.83;3.40;;;;;6.70;100334.00;;;;9863069;30;20216;-80
2023/04/14 06:22:29;;;;;;;12.93;4.20;;;;;6.60;100331.00;;;;9849894;29;20226;-82
2023/04/14 06:27:31;;;;;;;11.10;2.93;;;;;6.60;100330.00;;;;9867366;29;20492;-81
2023/04/14 06:32:33;;;;;;;4.73;2.70;;;;;6.80;100330.00;;;;9830053;30;20299;-80
2023/04/14 06:37:35;;;;;;;7.10;2.23;;;;;7.00;100332.00;;;;9871900;29;20306;-81
2023/04/14 06:42:37;;;;;;;2.93;2.30;;;;;7.30;100318.00;;;;9901823;29;20231;-81
2023/04/14 06:47:39;;;;;;;6.57;2.40;;;;;7.60;100302.00;;;;9864837;29;20204;-81
2023/04/14 06:52:41;;;;;;;6.70;2.90;;;;;7.90;100308.00;;;;9867843;29;20857;-82
2023/04/14 06:57:43;;;;;;;8.67;3.17;;;;;7.80;100302.00;;;;9858171;30;20227;-82
2023/04/14 07:02:45;;;;;;;4.13;3.30;;;;;7.90;100303.00;;;;9898634;29;20215;-81
2023/04/14 07:07:47;;;;;;;6.57;3.20;;;;;8.80;100300.00;;;;9881278;29;20214;-81
2023/04/14 07:12:49;;;;;;;5.27;2.43;;;;;9.70;100302.00;;;;9846417;30;20216;-81
2023/04/14 07:17:51;;;;;;;4.90;2.30;;;;;10.30;100302.00;;;;9855948;29;20573;-81
2023/04/14 07:22:54;;;;;;;4.67;2.03;;;;;10.70;100286.00;;;;9864798;29;20712;-82
2023/04/14 07:27:56;;;;;;;4.30;2.00;;;;;11.10;100284.00;;;;9836089;29;20921;-81
2023/04/14 07:33:04;;;;;;;6.07;2.37;;;;;11.20;100289.00;;;;9868658;29;20219;-81
2023/04/14 07:38:06;;;;;;;4.53;2.07;;;;;11.60;100286.00;;;;9855468;29;20331;-81
2023/04/14 07:43:09;;;;;;;4.57;2.63;;;;;11.80;100274.00;;;;9844731;30;20649;-81
2023/04/14 07:48:11;;;;;;;5.13;2.23;;;;;12.10;100294.00;;;;9856233;29;20265;-80
2023/04/14 07:53:13;;;;;;;4.50;1.90;;;;;12.50;100272.00;;;;9878208;29;20212;-81
2023/04/14 07:58:15;;;;;;;3.83;2.73;;;;;12.70;100276.00;;;;9890178;29;20330;-82
2023/04/14 08:03:17;;;;;;;5.00;1.90;;;;;13.20;100285.00;;;;9867763;29;20306;-83
2023/04/14 08:08:20;;;;;;;5.23;1.80;;;;;13.60;100278.00;;;;9843812;29;20326;-79
2023/04/14 08:13:22;;;;;;;5.57;1.60;;;;;14.20;100277.00;;;;9847381;29;20718;-82
2023/04/14 08:18:23;;;;;;;2.92;1.48;;;;;14.60;100272.00;;;;9865760;29;20261;-80
2023/04/14 08:23:25;;;;;;;3.65;1.63;;;;;15.00;100264.00;;;;9841563;30;20297;-79
2023/04/14 08:28:28;;;;;;;2.22;1.20;;;;;14.90;100268.00;;;;9834601;29;20227;-79
2023/04/14 08:33:30;;;;;;;4.80;1.55;;;;;15.10;100261.00;;;;9823962;29;20307;-79
2023/04/14 08:38:32;;;;;;;4.00;1.27;;;;;15.70;100264.00;;;;9833334;29;20219;-80
2023/04/14 08:43:34;;;;;;;2.28;0.93;;;;;16.00;100266.00;;;;9848840;29;20212;-79
2023/04/14 08:48:38;;;;;;;3.63;1.08;;;;;16.00;100249.00;;;;9853161;29;20212;-79
2023/04/14 08:53:43;;;;;;;1.67;1.30;;;;;16.20;100246.00;;;;9864420;29;20200;-80
2023/04/14 08:58:47;;;;;;;1.85;1.08;;;;;16.50;100253.00;;;;9875294;29;20264;-80
2023/04/14 09:03:49;;;;;;;2.50;0.90;;;;;16.90;100236.00;;;;9869778;29;20272;-80
2023/04/14 09:08:52;;;;;;;2.75;1.40;;;;;17.30;100245.00;;;;9880406;29;20264;-79
2023/04/14 09:13:55;;;;;;;3.90;1.20;;;;;17.30;100242.00;;;;9877829;29;20797;-79
2023/04/14 09:18:57;;;;;;;2.03;1.17;;;;;17.30;100223.00;;;;9838690;29;20212;-79
2023/04/14 09:24:09;;;;;;;2.40;0.98;;;;;18.00;100223.00;;;;9851695;29;20319;-79
2023/04/14 09:29:13;;;;;;;2.33;1.00;;;;;18.30;100212.00;;;;9851256;29;20188;-79
2023/04/14 09:34:19;;;;;;;2.08;1.00;;;;;18.40;100208.00;;;;9848186;29;20255;-79
2023/04/14 09:39:21;;;;;;;2.30;1.05;;;;;18.30;100209.00;;;;9879571;29;20215;-80
2023/04/14 09:44:23;;;;;;;3.40;1.38;;;;;18.20;100211.00;;;;9857594;29;20216;-80
2023/04/14 09:49:26;;;;;;;2.90;1.10;;;;;19.10;100198.00;;;;9865227;29;20212;-80
2023/04/14 09:54:29;;;;;;;2.70;1.00;;;;;19.80;100197.00;;;;9848519;29;20223;-80
2023/04/14 09:59:35;;;;;;;3.15;1.45;;;;;19.10;100204.00;;;;9875854;29;20590;-80
2023/04/14 10:04:37;;;;;;;5.38;2.17;;;;;18.40;100212.00;;;;9850037;29;20212;-79
2023/04/14 10:09:40;;;;;;;3.05;1.33;;;;;17.90;100195.00;;;;9867762;29;20216;-80
2023/04/14 10:14:43;;;;;;;4.25;1.58;;;;;17.40;100191.00;;;;9840321;30;20894;-81
2023/04/14 10:19:45;;;;;;;3.00;1.45;;;;;18.70;100175.00;;;;9842563;29;20272;-80
2023/04/14 10:24:48;;;;;;;3.58;1.20;;;;;18.20;100195.00;;;;9853546;29;20207;-80
2023/04/14 10:29:50;;;;;;;5.53;1.63;;;;;19.20;100166.00;;;;9872022;29;20204;-80
2023/04/14 10:35:02;;;;;;;3.65;1.80;;;;;20.30;100159.00;;;;9850999;29;20291;-80
2023/04/14 10:40:08;;;;;;;4.65;1.80;;;;;21.20;100165.00;;;;9864189;29;20672;-81
2023/04/14 10:45:11;;;;;;;5.25;1.35;;;;;20.20;100169.00;;;;9880326;29;20220;-80
2023/04/14 10:50:16;;;;;;;2.97;1.20;;;;;20.40;100146.00;;;;9870012;29;20755;-79
2023/04/14 10:55:26;;;;;;;4.25;1.50;;;;;21.60;100152.00;;;;9850341;29;20255;-80
2023/04/14 11:00:30;;;;;;;2.85;1.50;;;;;20.10;100142.00;;;;9890254;29;20222;-80
2023/04/14 11:05:34;;;;;;;3.08;1.00;;;;;20.50;100135.00;;;;9842251;29;20215;-81
2023/04/14 11:10:36;;;;;;;2.63;1.13;;;;;19.90;100151.00;;;;9834653;29;20627;-80
2023/04/14 11:16:02;;;;;;;3.70;1.30;;;;;19.60;100145.00;;;;9846293;29;20239;-82
2023/04/14 11:21:05;;;;;;;2.28;1.10;;;;;20.30;100135.00;;;;9879155;29;20273;-81
2023/04/14 11:26:09;;;;;;;3.60;1.10;;;;;21.10;100133.00;;;;9832166;30;20732;-81
2023/04/14 11:31:13;;;;;;;1.48;0.85;;;;;21.20;100116.00;;;;9845076;29;20200;-81
2023/04/14 11:36:16;;;;;;;3.15;0.80;;;;;20.20;100129.00;;;;9845302;29;20257;-80
2023/04/14 11:41:20;;;;;;;3.22;1.00;;;;;19.10;100132.00;;;;9860239;29;20295;-80
2023/04/14 11:46:22;;;;;;;2.10;0.80;;;;;19.90;100123.00;;;;9880183;29;20238;-81
2023/04/14 11:51:31;;;;;;;7.53;0.90;;;;;21.10;100124.00;;;;9881454;29;20218;-82
2023/04/14 11:56:33;;;;;;;4.70;1.00;;;;;19.60;100122.00;;;;9836978;29;20593;-82
2023/04/14 12:01:35;;;;;;;3.05;0.70;;;;;20.80;100121.00;;;;9863631;29;20234;-81
2023/04/14 12:06:38;;;;;;;2.08;0.80;;;;;19.70;100107.00;;;;9857410;29;20213;-81
2023/04/14 12:11:40;;;;;;;2.22;0.75;;;;;20.50;100094.00;;;;9886760;29;20207;-81
2023/04/14 12:16:42;;;;;;;1.92;0.85;;;;;22.50;100087.00;;;;9855982;29;20225;-81
2023/04/14 12:21:51;;;;;;;2.10;0.85;;;;;22.90;100088.00;;;;9880510;29;20215;-81
2023/04/14 12:26:54;;;;;;;1.23;0.80;;;;;21.80;100100.00;;;;9865893;29;20783;-81
2023/04/14 12:31:56;;;;;;;2.55;0.70;;;;;19.30;100092.00;;;;9877313;29;20680;-81
2023/04/14 12:36:58;;;;;;;2.97;1.00;;;;;18.30;100086.00;;;;9907168;29;20223;-81
2023/04/14 12:42:02;;;;;;;2.78;0.75;;;;;18.30;100084.00;;;;9894332;29;20215;-81
2023/04/14 12:47:04;;;;;;;2.53;1.05;;;;;19.30;100083.00;;;;9872010;29;20722;-80
2023/04/14 12:52:07;;;;;;;2.65;0.73;;;;;18.60;100083.00;;;;9840234;29;20204;-81
2023/04/14 12:57:09;;;;;;;2.05;0.80;;;;;18.90;100079.00;;;;9876145;29;20223;-80
2023/04/14 13:02:11;;;;;;;1.52;0.90;;;;;18.90;100075.00;;;;9830839;29;20227;-80
2023/04/14 13:07:13;;;;;;;3.60;1.02;;;;;18.60;100074.00;;;;9895547;29;20241;-81
2023/04/14 13:12:16;;;;;;;4.07;0.90;;;;;18.30;100066.00;;;;9857373;29;20299;-81
2023/04/14 13:17:17;;;;;;;3.05;1.13;;;;;18.00;100062.00;;;;9831021;30;20409;-81
2023/04/14 13:22:20;;;;;;;2.90;0.90;;;;;19.80;100064.00;;;;9877907;29;20295;-81
2023/04/14 13:27:22;;;;;;;2.42;1.48;;;;;19.20;100063.00;;;;9834117;29;20558;-80
2023/04/14 13:32:24;;;;;;;4.95;1.90;;;;;18.70;100058.00;;;;9843132;30;20277;-80
2023/04/14 13:37:26;;;;;;;2.25;0.93;;;;;18.30;100054.00;;;;9851724;30;20266;-81
2023/04/14 13:42:29;;;;;;;4.22;0.85;;;;;18.00;100051.00;;;;9869775;29;20208;-80
2023/04/14 13:47:31;;;;;;;1.80;0.88;;;;;17.90;100057.00;;;;9853115;30;20379;-80
2023/04/14 13:52:34;;;;;;;2.65;0.90;;;;;17.50;100054.00;;;;9854443;29;20211;-81
2023/04/14 13:57:36;;;;;;;3.60;0.93;;;;;17.30;100049.00;;;;9880739;29;20253;-80
2023/04/14 14:02:39;;;;;;;2.17;1.10;;;;;18.20;100014.00;;;;9847169;30;20251;-81
2023/04/14 14:07:42;;;;;;;3.67;0.90;;;;;22.20;100020.00;;;;9855214;29;20204;-81
2023/04/14 14:12:44;;;;;;;1.75;1.00;;;;;23.70;100014.00;;;;9871240;29;20303;-80
2023/04/14 14:17:46;;;;;;;2.20;0.80;;;;;24.80;100008.00;;;;9870489;29;20231;-82
2023/04/14 14:22:48;;;;;;;2.35;0.98;;;;;21.70;100028.00;;;;9857201;29;20206;-81
2023/04/14 14:27:50;;;;;;;2.95;0.80;;;;;20.20;100027.00;;;;9847187;29;20330;-81
2023/04/14 14:32:52;;;;;;;2.97;0.93;;;;;18.70;100024.00;;;;9847605;30;20197;-81
2023/04/14 14:37:55;;;;;;;4.55;1.13;;;;;18.50;99996.00;;;;9881985;29;20919;-81
2023/04/14 14:42:57;;;;;;;2.40;0.95;;;;;18.80;100016.00;;;;9878651;29;20204;-80
2023/04/14 14:48:00;;;;;;;2.17;1.23;;;;;18.00;100018.00;;;;9875070;29;20203;-81
2023/04/14 14:53:02;;;;;;;1.30;0.85;;;;;17.60;100013.00;;;;9895654;29;20323;-81
2023/04/14 14:58:07;;;;;;;4.45;1.88;;;;;17.30;100000.00;;;;9849727;29;20231;-81
2023/04/14 15:03:09;;;;;;;3.67;1.60;;;;;17.50;99999.00;;;;9850485;29;20263;-81
2023/04/14 15:08:11;;;;;;;6.20;1.40;;;;;21.10;100000.00;;;;9866246;29;20221;-80
2023/04/14 15:13:13;;;;;;;1.27;0.73;;;;;21.10;100005.00;;;;9831565;30;20299;-81
2023/04/14 15:18:15;;;;;;;1.65;0.90;;;;;18.70;99997.00;;;;9883759;29;20227;-80
2023/04/14 15:23:17;;;;;;;4.13;1.05;;;;;18.10;99998.00;;;;9896993;29;20228;-80
2023/04/14 15:28:20;;;;;;;2.97;1.02;;;;;17.90;99994.00;;;;9866338;29;20211;-81
2023/04/14 15:33:22;;;;;;;2.55;0.85;;;;;17.20;99994.00;;;;9881298;29;20412;-81
2023/04/14 15:38:24;;;;;;;3.22;0.93;;;;;17.30;99990.00;;;;9845306;30;20689;-80
2023/04/14 15:43:27;;;;;;;2.88;1.00;;;;;17.10;99995.00;;;;9859245;29;20208;-80
2023/04/14 15:48:30;;;;;;;2.85;1.05;;;;;16.90;99988.00;;;;9865369;29;20211;-80
2023/04/14 15:53:32;;;;;;;2.63;1.10;;;;;16.70;99989.00;;;;9845910;29;20203;-80
2023/04/14 15:58:34;;;;;;;2.10;1.15;;;;;16.40;99991.00;;;;9864854;29;20228;-80
2023/04/14 16:03:36;;;;;;;1.27;0.63;;;;;16.40;99983.00;;;;9858814;29;20212;-80
2023/04/14 16:08:39;;;;;;;1.60;0.70;;;;;17.50;99977.00;;;;9901515;29;20256;-81
2023/04/14 16:13:44;;;;;;;1.27;0.70;;;;;17.10;99971.00;;;;9868855;29;20322;-80
2023/04/14 16:18:47;;;;;;;1.75;0.77;;;;;15.90;99981.00;;;;9864957;29;20230;-80
2023/04/14 16:23:49;;;;;;;2.17;0.77;;;;;15.30;99981.00;;;;9840939;30;20213;-81
2023/04/14 16:28:52;;;;;;;2.58;1.30;;;;;15.10;99979.00;;;;9840932;29;20216;-81
2023/04/14 16:33:55;;;;;;;2.10;0.80;;;;;15.10;99972.00;;;;9813609;30;20220;-80
2023/04/14 16:38:56;;;;;;;2.75;1.15;;;;;15.10;99984.00;;;;9828192;29;20593;-80
2023/04/14 16:43:59;;;;;;;1.50;0.80;;;;;14.90;99983.00;;;;9864286;29;20216;-81
2023/04/14 16:49:01;;;;;;;0.60;0.60;;;;;14.60;99988.00;;;;9874025;29;20220;-80
2023/04/14 16:54:04;;;;;;;1.63;0.80;;;;;14.50;99980.00;;;;9863521;29;20200;-80
2023/04/14 16:59:06;;;;;;;1.03;0.70;;;;;14.40;99983.00;;;;9848561;29;20235;-81
2023/04/14 17:04:08;;;;;;;2.00;0.80;;;;;14.20;99989.00;;;;9841600;30;20216;-81
2023/04/14 17:09:11;;;;;;;2.30;0.70;;;;;13.90;99986.00;;;;9887780;29;20306;-80
2023/04/14 17:14:13;;;;;;;2.13;0.90;;;;;13.50;99983.00;;;;9869076;29;20196;-80
2023/04/14 17:19:15;;;;;;;0.70;0.70;;;;;13.30;99990.00;;;;9858834;29;20238;-81
2023/04/14 17:24:17;;;;;;;2.87;0.67;;;;;13.10;99990.00;;;;9885190;29;20222;-80
2023/04/14 17:29:20;;;;;;;3.53;0.80;;;;;12.80;99985.00;;;;9856293;29;20220;-83
2023/04/14 17:34:22;;;;;;;2.40;0.70;;;;;12.70;99991.00;;;;9864180;29;20200;-80
2023/04/14 17:39:25;;;;;;;2.37;0.80;;;;;12.60;99994.00;;;;9879660;29;20317;-81
2023/04/14 17:44:33;;;;;;;2.47;0.70;;;;;12.40;99992.00;;;;9847714;30;20299;-81
2023/04/14 17:49:35;;;;;;;2.60;0.80;;;;;12.30;99993.00;;;;9856715;29;20303;-81
2023/04/14 17:54:50;;;;;;;2.03;0.73;;;;;12.10;99999.00;;;;9836936;30;20215;-80
2023/04/14 17:59:52;;;;;;;4.83;1.93;;;;;11.90;100005.00;;;;9861747;29;20235;-81
2023/04/14 18:04:54;;;;;;;5.70;1.93;;;;;11.80;100014.00;;;;9883790;29;20203;-82
2023/04/14 18:09:57;;;;;;;3.37;1.93;;;;;11.60;100019.00;;;;9870682;29;20630;-81
2023/04/14 18:14:59;;;;;;;3.03;1.73;;;;;11.50;100016.00;;;;9881978;29;20215;-80
2023/04/14 18:20:02;;;;;;;2.80;1.90;;;;;11.50;100019.00;;;;9865446;29;20223;-80
2023/04/14 18:25:05;;;;;;;3.30;1.83;;;;;11.40;100020.00;;;;9840215;29;20243;-80
2023/04/14 18:30:07;;;;;;;2.80;1.30;;;;;11.30;100031.00;;;;9864599;29;20523;-80
2023/04/14 18:35:10;;;;;;;2.93;1.30;;;;;11.30;100027.00;;;;9865892;29;20487;-80
2023/04/14 18:40:12;;;;;;;6.17;1.90;;;;;11.20;100037.00;;;;9850296;29;20280;-82
2023/04/14 18:45:14;;;;;;;4.47;2.10;;;;;11.10;100043.00;;;;9867724;29;20207;-82
2023/04/14 18:50:17;;;;;;;5.43;2.00;;;;;11.00;100048.00;;;;9883734;29;20207;-82
2023/04/14 18:55:19;;;;;;;3.83;1.83;;;;;11.00;100053.00;;;;9873311;29;20657;-83
2023/04/14 19:00:21;;;;;;;6.67;2.37;;;;;10.80;100063.00;;;;9886493;29;20219;-82
2023/04/14 19:05:26;;;;;;;3.80;2.17;;;;;10.80;100056.00;;;;9917473;29;20231;-82
2023/04/14 19:10:28;;;;;;;2.57;1.43;;;;;10.70;100074.00;;;;9884328;29;20475;-83
2023/04/14 19:15:30;;;;;;;13.10;7.47;;;;;10.60;100062.00;;;;9883196;29;20199;-82
2023/04/14 19:20:33;;;;;;;4.80;2.70;;;;;10.50;100078.00;;;;9883600;29;20211;-83
2023/04/14 19:25:37;;;;;;;6.77;2.60;;;;;10.40;100076.00;;;;9869057;29;20306;-82
2023/04/14 19:30:40;;;;;;;5.70;4.30;;;;;10.30;100080.00;;;;9863241;29;20249;-83
2023/04/14 19:35:45;;;;;;;7.30;5.27;;;;;10.30;100095.00;;;;9884724;29;20688;-83
2023/04/14 19:40:48;;;;;;;9.37;5.30;;;;;10.30;100092.00;;;;9859195;30;20429;-82
2023/04/14 19:45:55;;;;;;;9.00;5.40;;;;;10.30;100095.00;;;;9870093;29;20239;-82
2023/04/14 19:51:00;;;;;;;5.50;3.40;;;;;10.30;100097.00;;;;9869707;29;20243;-83
2023/04/14 19:56:04;;;;;;;4.57;3.33;;;;;10.20;100101.00;;;;9867963;29;20510;-82
2023/04/14 20:01:06;;;;;;;4.27;2.17;;;;;10.20;100104.00;;;;9843201;29;20609;-82
2023/04/14 20:06:09;;;;;;;3.20;2.20;;;;;10.10;100089.00;;;;9826410;30;20600;-83
2023/04/14 20:11:11;;;;;;;6.27;3.07;;;;;10.00;100092.00;;;;9871421;29;20803;-82
2023/04/14 20:16:13;;;;;;;5.43;2.70;;;;;10.00;100095.00;;;;9870470;29;20257;-82
2023/04/14 20:21:15;;;;;;;4.90;2.50;;;;;9.90;100095.00;;;;9852217;29;20215;-82
2023/04/14 20:26:18;;;;;;;6.27;2.97;;;;;10.00;100096.00;;;;9881838;29;20237;-82
2023/04/14 20:31:21;;;;;;;9.87;3.87;;;;;10.00;100094.00;;;;9873467;29;20257;-81
2023/04/14 20:36:23;;;;;;;8.70;3.10;;;;;10.00;100093.00;;;;9843162;29;20272;-82
2023/04/14 20:41:26;;;;;;;4.60;2.90;;;;;10.00;100090.00;;;;9852607;29;20219;-81
2023/04/14 20:46:28;;;;;;;5.23;2.27;;;;;9.90;100097.00;;;;9886746;29;20872;-81
2023/04/14 20:51:31;;;;;;;4.50;2.73;;;;;9.90;100085.00;;;;9863071;29;20211;-81
2023/04/14 20:56:33;;;;;;;4.50;2.27;;;;;9.90;100099.00;;;;9875464;29;20236;-82
2023/04/14 21:01:36;;;;;;;5.00;2.10;;;;;9.90;100097.00;;;;9837937;29;20231;-81
2023/04/14 21:06:39;;;;;;;2.57;1.90;;;;;9.80;100096.00;;;;9895847;29;20573;-82
2023/04/14 21:11:41;;;;;;;2.50;1.70;;;;;9.80;100090.00;;;;9836999;30;20744;-82
2023/04/14 21:16:43;;;;;;;7.83;3.50;;;;;9.70;100095.00;;;;9851174;30;20542;-81
2023/04/14 21:21:45;;;;;;;12.43;6.50;;;;;9.70;100088.00;;;;9890904;29;20295;-82
2023/04/14 21:26:48;;;;;;;9.07;5.27;;;;;9.70;100090.00;;;;9871981;29;20463;-82
2023/04/14 21:31:50;;;;;;;7.43;4.10;;;;;9.70;100096.00;;;;9874672;29;20218;-81
2023/04/14 21:36:53;;;;;;;8.43;4.67;;;;;9.60;100100.00;;;;9871519;29;20806;-82
2023/04/14 21:41:56;;;;;;;9.30;5.37;;;;;9.50;100092.00;;;;9855755;29;20545;-81
2023/04/14 21:46:58;;;;;;;8.90;4.83;;;;;9.50;100096.00;;;;9883771;29;20235;-81
2023/04/14 21:52:01;;;;;;;6.20;4.33;;;;;9.40;100099.00;;;;9842797;29;20207;-81
2023/04/14 21:57:03;;;;;;;9.57;4.63;;;;;9.30;100103.00;;;;9840562;29;20235;-81
2023/04/14 22:02:05;;;;;;;6.67;4.30;;;;;9.10;100094.00;;;;9850547;29;20224;-82
2023/04/14 22:07:08;;;;;;;6.37;3.97;;;;;8.90;100091.00;;;;9868987;29;20315;-81
2023/04/14 22:12:10;;;;;;;8.10;4.30;;;;;8.70;100087.00;;;;9828452;30;20215;-81
2023/04/14 22:17:12;;;;;;;6.27;4.20;;;;;8.50;100084.00;;;;9837739;29;20230;-82
2023/04/14 22:22:14;;;;;;;10.53;5.63;;;;;8.30;100095.00;;;;9869945;29;20260;-82
2023/04/14 22:27:16;;;;;;;10.03;5.03;;;;;8.10;100090.00;;;;9854574;29;20261;-82
2023/04/14 22:32:19;;;;;;;7.53;5.53;;;;;7.90;100091.00;;;;9868091;29;20756;-82
2023/04/14 22:37:21;;;;;;;12.97;6.17;;;;;7.70;100090.00;;;;9900551;29;20987;-81
2023/04/14 22:42:24;;;;;;;7.93;4.70;;;;;7.60;100087.00;;;;9880888;29;20235;-81
2023/04/14 22:47:27;;;;;;;12.27;6.47;;;;;7.60;100092.00;;;;9870622;29;20662;-81
2023/04/14 22:52:29;;;;;;;11.67;5.63;;;;;7.50;100087.00;;;;9847097;29;20271;-81
2023/04/14 22:57:32;;;;;;;12.53;6.10;;;;;7.50;100093.00;;;;9851410;29;20223;-81
2023/04/14 23:02:34;;;;;;;9.27;5.27;;;;;7.60;100093.00;;;;9837473;29;20668;-81
2023/04/14 23:07:37;;;;;;;6.73;4.73;;;;;7.60;100098.00;;;;9829858;30;20216;-82
2023/04/14 23:12:39;;;;;;;6.37;4.20;;;;;7.70;100107.00;;;;9815123;29;20543;-81
2023/04/14 23:17:42;;;;;;;10.30;6.40;;;;;7.60;100112.00;;;;9877705;29;20607;-80
2023/04/14 23:22:44;;;;;;;8.83;5.17;;;;;7.70;100106.00;;;;9836144;30;20216;-81
2023/04/14 23:27:46;;;;;;;7.67;5.10;;;;;7.90;100120.00;;;;9818733;29;20206;-82
2023/04/14 23:32:48;;;;;;;7.70;5.23;;;;;8.00;100120.00;;;;9865636;29;20203;-81
2023/04/14 23:37:50;;;;;;;8.17;4.93;;;;;8.00;100115.00;;;;9866963;29;20333;-82
2023/04/14 23:42:54;;;;;;;7.50;5.30;;;;;8.10;100112.00;;;;9880974;29;20298;-82
2023/04/14 23:47:57;;;;;;;8.13;4.97;;;;;8.10;100118.00;;;;9880228;29;20226;-81
2023/04/14 23:53:00;;;;;;;11.60;7.43;;;;;8.20;100119.00;;;;9880175;29;20905;-81
2023/04/14 23:58:02;;;;;;;19.33;9.00;;;;;8.10;100113.00;;;;9837345;29;20259;-81
